createdAt,value
2018-12-24T00:00:38.073Z,93.06
2018-12-24T00:03:06.961Z,92.87
2018-12-24T00:05:35.772Z,93.12
2018-12-24T00:08:04.811Z,93.02
2018-12-24T00:10:47.259Z,92.91
2018-12-24T00:13:16.058Z,93.26
2018-12-24T00:15:45.068Z,93.39
2018-12-24T00:18:13.859Z,93.58
2018-12-24T00:20:42.618Z,93.23
2018-12-24T00:23:22.196Z,93.34
2018-12-24T00:25:51.010Z,92.78
2018-12-24T00:28:19.881Z,92.68
2018-12-24T00:30:48.719Z,92.56
2018-12-24T00:33:17.930Z,92.53
2018-12-24T00:35:46.773Z,92.97
2018-12-24T00:38:15.567Z,92.96
2018-12-24T00:40:44.336Z,92.78
2018-12-24T00:43:13.096Z,92.89
2018-12-24T00:45:41.883Z,93.20
2018-12-24T00:48:10.669Z,92.69
2018-12-24T00:50:39.496Z,93.32
2018-12-24T00:53:08.889Z,92.88
2018-12-24T00:55:37.655Z,92.83
2018-12-24T00:58:06.510Z,92.62
2018-12-24T01:00:35.256Z,93.15
2018-12-24T01:03:04.056Z,92.66
2018-12-24T01:05:35.721Z,92.50
2018-12-24T01:08:04.784Z,92.00
2018-12-24T01:10:33.578Z,92.65
2018-12-24T01:13:02.471Z,92.55
2018-12-24T01:15:31.283Z,92.26
2018-12-24T01:18:00.047Z,92.54
2018-12-24T01:20:28.923Z,92.88
2018-12-24T01:22:57.706Z,92.87
2018-12-24T01:25:26.469Z,93.21
2018-12-24T01:27:55.273Z,93.15
2018-12-24T01:30:24.103Z,92.66
2018-12-24T01:32:53.014Z,92.26
2018-12-24T01:35:22.183Z,92.15
2018-12-24T01:37:50.965Z,91.62
2018-12-24T01:40:19.738Z,92.25
2018-12-24T01:42:48.502Z,92.25
2018-12-24T01:45:17.306Z,92.00
2018-12-24T01:47:46.416Z,92.71
2018-12-24T01:50:15.297Z,92.86
2018-12-24T01:52:44.047Z,92.30
2018-12-24T01:55:12.957Z,92.29
2018-12-24T01:57:41.721Z,91.99
2018-12-24T02:00:10.479Z,91.73
2018-12-24T02:02:39.298Z,91.94
2018-12-24T02:05:09.770Z,91.31
2018-12-24T02:07:38.641Z,91.35
2018-12-24T02:10:07.449Z,90.70
2018-12-24T02:12:42.262Z,90.87
2018-12-24T02:15:06.919Z,90.67
2018-12-24T02:17:35.948Z,91.03
2018-12-24T02:20:05.303Z,89.98
2018-12-24T02:22:34.112Z,91.12
2018-12-24T02:25:03.061Z,91.18
2018-12-24T02:27:31.804Z,91.04
2018-12-24T02:30:00.577Z,90.41
2018-12-24T02:32:29.391Z,90.58
2018-12-24T02:34:58.164Z,90.78
2018-12-24T02:37:26.948Z,90.09
2018-12-24T02:39:58.534Z,89.65
2018-12-24T02:42:27.290Z,89.67
2018-12-24T02:44:56.468Z,89.67
2018-12-24T02:47:25.228Z,90.05
2018-12-24T02:49:54.333Z,89.67
2018-12-24T02:52:23.152Z,89.29
2018-12-24T02:54:51.909Z,89.76
2018-12-24T02:57:20.711Z,89.75
2018-12-24T02:59:50.627Z,89.52
2018-12-24T03:02:19.422Z,90.15
2018-12-24T03:04:48.270Z,90.50
2018-12-24T03:07:17.108Z,90.69
2018-12-24T03:09:45.924Z,90.89
2018-12-24T03:12:14.699Z,90.77
2018-12-24T03:14:43.628Z,90.35
2018-12-24T03:17:12.429Z,90.75
2018-12-24T03:19:41.710Z,90.45
2018-12-24T03:22:10.588Z,90.68
2018-12-24T03:24:39.346Z,90.18
2018-12-24T03:27:08.420Z,90.98
2018-12-24T03:29:37.296Z,89.55
2018-12-24T03:32:06.124Z,89.77
2018-12-24T03:34:35.367Z,89.86
2018-12-24T03:37:04.153Z,89.30
2018-12-24T03:39:32.911Z,88.97
2018-12-24T03:42:02.006Z,90.36
2018-12-24T03:44:30.855Z,89.34
2018-12-24T03:46:59.677Z,89.01
2018-12-24T03:49:29.491Z,89.18
2018-12-24T03:51:58.268Z,89.18
2018-12-24T03:54:27.078Z,89.27
2018-12-24T03:56:55.870Z,88.51
2018-12-24T03:59:24.673Z,88.26
2018-12-24T04:01:53.710Z,88.50
2018-12-24T04:04:22.479Z,87.93
2018-12-24T04:06:51.269Z,88.14
2018-12-24T04:09:20.101Z,87.68
2018-12-24T04:11:48.917Z,87.49
2018-12-24T04:14:17.681Z,88.64
2018-12-24T04:16:46.584Z,87.54
2018-12-24T04:19:15.714Z,86.86
2018-12-24T04:21:44.465Z,86.97
2018-12-24T04:24:13.250Z,87.76
2018-12-24T04:26:42.094Z,87.80
2018-12-24T04:29:11.152Z,88.37
2018-12-24T04:31:39.932Z,87.27
2018-12-24T04:34:08.721Z,87.79
2018-12-24T04:36:37.514Z,87.19
2018-12-24T04:39:07.092Z,87.25
2018-12-24T04:41:36.023Z,87.10
2018-12-24T04:44:04.822Z,86.80
2018-12-24T04:46:33.693Z,86.85
2018-12-24T04:49:02.704Z,85.73
2018-12-24T04:51:31.765Z,87.09
2018-12-24T04:54:00.519Z,87.48
2018-12-24T04:56:29.306Z,86.18
2018-12-24T04:58:58.104Z,86.84
2018-12-24T05:01:26.922Z,86.54
2018-12-24T05:03:56.023Z,85.86
2018-12-24T05:06:24.769Z,85.46
2018-12-24T05:08:53.662Z,85.47
2018-12-24T05:11:22.422Z,85.09
2018-12-24T05:13:51.229Z,85.97
2018-12-24T05:16:19.981Z,84.87
2018-12-24T05:18:48.850Z,83.93
2018-12-24T05:21:17.642Z,84.95
2018-12-24T05:23:46.411Z,84.05
2018-12-24T05:26:15.250Z,84.64
2018-12-24T05:28:44.140Z,83.66
2018-12-24T05:31:12.900Z,84.38
2018-12-24T05:33:41.733Z,84.26
2018-12-24T05:36:10.581Z,84.37
2018-12-24T05:38:39.346Z,84.32
2018-12-24T05:41:08.105Z,84.47
2018-12-24T05:43:37.188Z,84.65
2018-12-24T05:46:06.069Z,84.92
2018-12-24T05:48:34.871Z,85.36
2018-12-24T05:51:03.716Z,84.22
2018-12-24T05:53:32.475Z,84.17
2018-12-24T05:56:01.244Z,84.72
2018-12-24T05:58:32.971Z,83.12
2018-12-24T06:01:02.107Z,83.49
2018-12-24T06:03:30.889Z,84.45
2018-12-24T06:05:59.759Z,84.79
2018-12-24T06:08:28.556Z,84.89
2018-12-24T06:10:57.379Z,84.39
2018-12-24T06:13:26.242Z,83.87
2018-12-24T06:15:55.013Z,83.98
2018-12-24T06:18:23.805Z,83.77
2018-12-24T06:20:52.570Z,83.23
2018-12-24T06:23:21.381Z,83.31
2018-12-24T06:25:50.170Z,83.06
2018-12-24T06:28:19.217Z,82.80
2018-12-24T06:30:48.041Z,83.18
2018-12-24T06:33:16.843Z,83.20
2018-12-24T06:35:45.662Z,83.37
2018-12-24T06:38:14.665Z,83.37
2018-12-24T06:40:43.437Z,83.62
2018-12-24T06:43:12.218Z,83.30
2018-12-24T06:45:41.016Z,82.79
2018-12-24T06:48:09.786Z,83.35
2018-12-24T06:50:38.553Z,83.62
2018-12-24T06:53:07.351Z,83.44
2018-12-24T06:55:36.125Z,83.85
2018-12-24T06:58:04.951Z,84.47
2018-12-24T07:00:33.822Z,84.71
2018-12-24T07:03:02.607Z,84.97
2018-12-24T07:05:31.745Z,84.23
2018-12-24T07:08:00.646Z,84.81
2018-12-24T07:10:29.503Z,84.25
2018-12-24T07:12:58.344Z,85.11
2018-12-24T07:15:27.175Z,85.97
2018-12-24T07:17:55.992Z,85.26
2018-12-24T07:20:25.047Z,86.04
2018-12-24T07:22:53.808Z,86.25
2018-12-24T07:25:22.594Z,85.04
2018-12-24T07:27:51.373Z,83.98
2018-12-24T07:30:20.152Z,84.01
2018-12-24T07:32:48.969Z,84.22
2018-12-24T07:35:18.428Z,85.35
2018-12-24T07:37:48.193Z,85.89
2018-12-24T07:40:17.325Z,85.83
2018-12-24T07:42:46.172Z,84.66
2018-12-24T07:45:14.944Z,85.16
2018-12-24T07:47:43.906Z,85.01
2018-12-24T07:50:12.779Z,84.89
2018-12-24T07:52:41.553Z,84.65
2018-12-24T07:55:10.351Z,85.08
2018-12-24T07:57:39.128Z,84.90
2018-12-24T08:00:08.360Z,85.30
2018-12-24T08:02:37.142Z,84.96
2018-12-24T08:05:06.058Z,84.65
2018-12-24T08:07:34.838Z,84.99
2018-12-24T08:10:03.953Z,85.08
2018-12-24T08:12:32.719Z,86.26
2018-12-24T08:15:01.513Z,85.82
2018-12-24T08:17:30.536Z,84.97
2018-12-24T08:19:59.421Z,84.77
2018-12-24T08:22:28.289Z,85.37
2018-12-24T08:24:57.237Z,84.91
2018-12-24T08:27:26.365Z,84.85
2018-12-24T08:29:55.147Z,85.43
2018-12-24T08:32:23.977Z,85.21
2018-12-24T08:34:53.064Z,85.29
2018-12-24T08:37:21.821Z,85.82
2018-12-24T08:39:50.672Z,85.76
2018-12-24T08:42:19.531Z,85.86
2018-12-24T08:44:48.425Z,86.08
2018-12-24T08:47:17.335Z,85.24
2018-12-24T08:49:46.136Z,85.38
2018-12-24T08:52:15.016Z,85.58
2018-12-24T08:54:43.806Z,85.67
2018-12-24T08:57:12.717Z,86.05
2018-12-24T08:59:41.587Z,85.54
2018-12-24T09:02:10.480Z,86.20
2018-12-24T09:04:39.382Z,85.59
2018-12-24T09:07:08.167Z,85.69
2018-12-24T09:09:37.203Z,84.92
2018-12-24T09:12:07.721Z,85.51
2018-12-24T09:14:36.832Z,85.83
2018-12-24T09:17:05.806Z,85.64
2018-12-24T09:19:51.888Z,85.17
2018-12-24T09:22:21.233Z,84.83
2018-12-24T09:24:54.397Z,84.71
2018-12-24T09:27:25.722Z,85.21
2018-12-24T09:29:54.604Z,84.78
2018-12-24T09:32:23.597Z,84.55
2018-12-24T09:34:52.647Z,84.10
2018-12-24T09:37:21.438Z,84.52
2018-12-24T09:39:50.187Z,84.01
2018-12-24T09:42:18.988Z,83.88
2018-12-24T09:44:48.008Z,83.73
2018-12-24T09:47:16.788Z,83.74
2018-12-24T09:49:45.626Z,83.66
2018-12-24T09:52:14.445Z,83.28
2018-12-24T09:54:43.239Z,82.22
2018-12-24T09:57:12.027Z,82.38
2018-12-24T09:59:41.280Z,83.17
2018-12-24T10:02:10.357Z,82.76
2018-12-24T10:04:47.874Z,82.13
2018-12-24T10:07:40.076Z,82.69
2018-12-24T10:10:26.899Z,82.53
2018-12-24T10:13:01.327Z,82.30
2018-12-24T10:15:37.738Z,82.32
2018-12-24T10:18:14.093Z,81.65
2018-12-24T10:20:42.861Z,81.56
2018-12-24T10:23:11.628Z,81.97
2018-12-24T10:25:40.867Z,81.51
2018-12-24T10:28:09.745Z,80.60
2018-12-24T10:30:39.366Z,81.09
2018-12-24T10:33:08.175Z,81.32
2018-12-24T10:35:37.197Z,81.37
2018-12-24T10:38:05.966Z,82.06
2018-12-24T10:40:39.674Z,81.09
2018-12-24T10:43:09.229Z,81.20
2018-12-24T10:45:38.571Z,80.44
2018-12-24T10:48:07.525Z,80.33
2018-12-24T10:50:36.303Z,80.52
2018-12-24T10:53:05.468Z,80.00
2018-12-24T10:55:34.388Z,79.87
2018-12-24T10:58:04.268Z,79.66
2018-12-24T11:00:33.084Z,79.78
2018-12-24T11:03:02.504Z,79.29
2018-12-24T11:05:34.181Z,78.26
2018-12-24T11:08:02.966Z,77.90
2018-12-24T11:10:32.117Z,78.17
2018-12-24T11:13:00.992Z,78.35
2018-12-24T11:15:29.874Z,78.40
2018-12-24T11:17:58.754Z,78.34
2018-12-24T11:20:27.685Z,77.73
2018-12-24T11:22:56.809Z,77.97
2018-12-24T11:25:26.101Z,75.80
2018-12-24T11:27:56.424Z,77.66
2018-12-24T11:30:25.187Z,77.23
2018-12-24T11:32:55.101Z,77.54
2018-12-24T11:35:30.298Z,77.18
2018-12-24T11:37:59.088Z,76.99
2018-12-24T11:40:27.978Z,77.29
2018-12-24T11:42:56.805Z,77.17
2018-12-24T11:45:45.430Z,77.52
2018-12-24T11:48:14.255Z,77.28
2018-12-24T11:50:43.200Z,76.95
2018-12-24T11:53:11.993Z,77.65
2018-12-24T11:55:40.843Z,77.80
2018-12-24T11:58:18.712Z,78.13
2018-12-24T12:00:48.070Z,77.87
2018-12-24T12:03:16.899Z,78.34
2018-12-24T12:05:45.879Z,78.73
2018-12-24T12:08:14.704Z,77.62
2018-12-24T12:10:43.480Z,77.11
2018-12-24T12:13:12.309Z,77.30
2018-12-24T12:15:42.679Z,78.03
2018-12-24T12:18:11.587Z,77.86
2018-12-24T12:20:40.613Z,77.78
2018-12-24T12:23:09.354Z,77.65
2018-12-24T12:25:38.169Z,78.50
2018-12-24T12:28:07.224Z,78.42
2018-12-24T12:30:35.979Z,77.56
2018-12-24T12:33:04.876Z,77.37
2018-12-24T12:35:33.922Z,78.10
2018-12-24T12:38:03.074Z,78.01
2018-12-24T12:40:31.875Z,78.79
2018-12-24T12:43:00.664Z,77.76
2018-12-24T12:45:29.577Z,76.85
2018-12-24T12:47:58.384Z,76.88
2018-12-24T12:50:27.440Z,77.12
2018-12-24T12:52:56.286Z,76.37
2018-12-24T12:55:25.104Z,76.80
2018-12-24T12:57:53.912Z,76.72
2018-12-24T13:00:22.907Z,77.12
2018-12-24T13:02:52.021Z,77.03
2018-12-24T13:05:20.792Z,77.23
2018-12-24T13:07:49.566Z,78.38
2018-12-24T13:10:18.349Z,77.70
2018-12-24T13:12:47.461Z,78.02
2018-12-24T13:15:16.274Z,77.77
2018-12-24T13:17:45.372Z,78.35
2018-12-24T13:20:14.147Z,78.35
2018-12-24T13:22:42.929Z,78.40
2018-12-24T13:25:11.694Z,78.75
2018-12-24T13:27:40.491Z,79.02
2018-12-24T13:30:09.343Z,78.35
2018-12-24T13:32:38.092Z,79.01
2018-12-24T13:35:07.247Z,78.58
2018-12-24T13:37:36.064Z,78.08
2018-12-24T13:40:04.967Z,79.20
2018-12-24T13:42:33.739Z,79.34
2018-12-24T13:45:02.507Z,78.86
2018-12-24T13:47:31.516Z,78.97
2018-12-24T13:50:00.309Z,78.78
2018-12-24T13:52:34.424Z,79.64
2018-12-24T13:55:11.497Z,79.49
2018-12-24T13:57:41.643Z,79.67
2018-12-24T14:00:12.547Z,79.46
2018-12-24T14:02:42.121Z,79.83
2018-12-24T14:05:11.242Z,79.91
2018-12-24T14:07:40.643Z,79.95
2018-12-24T14:10:12.268Z,79.94
2018-12-24T14:12:41.739Z,80.43
2018-12-24T14:15:18.947Z,80.10
2018-12-24T14:17:47.766Z,80.21
2018-12-24T14:20:16.540Z,80.47
2018-12-24T14:22:45.470Z,80.93
2018-12-24T14:25:14.693Z,81.82
2018-12-24T14:27:43.537Z,82.05
2018-12-24T14:30:12.651Z,82.72
2018-12-24T14:32:43.178Z,83.06
2018-12-24T14:35:11.988Z,83.00
2018-12-24T14:37:40.864Z,83.09
2018-12-24T14:40:09.655Z,83.08
2018-12-24T14:42:38.492Z,83.03
2018-12-24T14:45:08.006Z,83.60
2018-12-24T14:47:36.764Z,83.47
2018-12-24T14:50:05.949Z,83.45
2018-12-24T14:52:37.776Z,83.56
2018-12-24T14:55:06.681Z,84.15
2018-12-24T14:57:35.652Z,84.68
2018-12-24T15:00:05.046Z,84.51
2018-12-24T15:02:33.839Z,84.58
2018-12-24T15:05:02.861Z,84.26
2018-12-24T15:07:31.774Z,85.10
2018-12-24T15:10:00.772Z,85.79
2018-12-24T15:12:29.574Z,85.44
2018-12-24T15:14:58.359Z,85.62
2018-12-24T15:17:27.723Z,85.36
2018-12-24T15:19:56.513Z,86.34
2018-12-24T15:22:25.405Z,85.47
2018-12-24T15:24:54.440Z,85.68
2018-12-24T15:27:23.217Z,86.10
2018-12-24T15:29:52.320Z,86.24
2018-12-24T15:32:21.100Z,85.94
2018-12-24T15:34:49.972Z,85.86
2018-12-24T15:37:19.213Z,86.43
2018-12-24T15:40:24.615Z,86.57
2018-12-24T15:42:58.398Z,86.07
2018-12-24T16:06:00.580Z,88.24
2018-12-24T16:08:29.686Z,88.11
2018-12-24T16:10:58.889Z,88.03
2018-12-24T16:13:27.957Z,88.20
2018-12-24T16:15:56.812Z,87.96
2018-12-24T16:18:25.605Z,88.11
2018-12-24T16:20:54.932Z,88.42
2018-12-24T16:23:23.954Z,88.81
2018-12-24T16:25:52.754Z,89.05
2018-12-24T16:28:21.691Z,88.03
2018-12-24T16:30:50.785Z,88.46
2018-12-24T16:33:19.540Z,88.83
2018-12-24T16:35:48.317Z,89.54
2018-12-24T16:38:17.075Z,88.96
2018-12-24T16:40:45.983Z,89.14
2018-12-24T16:43:14.830Z,89.36
2018-12-24T16:45:43.782Z,89.00
2018-12-24T16:48:12.612Z,89.86
2018-12-24T16:50:41.992Z,90.03
2018-12-24T16:53:12.068Z,90.07
2018-12-24T16:55:41.093Z,90.21
2018-12-24T16:58:13.262Z,89.72
2018-12-24T17:00:42.055Z,89.64
2018-12-24T17:03:18.186Z,89.62
2018-12-24T17:05:48.188Z,89.59
2018-12-24T17:08:16.956Z,90.18
2018-12-24T17:10:45.923Z,89.71
2018-12-24T17:13:14.739Z,90.08
2018-12-24T17:15:43.895Z,90.03
2018-12-24T17:18:13.426Z,90.02
2018-12-24T17:20:44.719Z,90.30
2018-12-24T17:23:13.761Z,90.27
2018-12-24T17:25:43.380Z,90.67
2018-12-24T17:28:12.261Z,90.27
2018-12-24T17:30:41.074Z,89.96
2018-12-24T17:33:09.887Z,90.48
2018-12-24T17:35:38.660Z,90.85
2018-12-24T17:38:07.695Z,90.75
2018-12-24T17:40:36.524Z,90.31
2018-12-24T17:43:05.312Z,90.19
2018-12-24T17:45:34.117Z,90.30
2018-12-24T17:48:03.443Z,90.44
2018-12-24T17:50:32.195Z,89.98
2018-12-24T17:53:01.027Z,90.34
2018-12-24T17:55:30.080Z,90.52
2018-12-24T17:57:58.900Z,90.43
2018-12-24T18:00:27.718Z,91.18
2018-12-24T18:02:56.542Z,90.66
2018-12-24T18:05:25.341Z,90.25
2018-12-24T18:07:54.069Z,90.61
2018-12-24T18:10:22.891Z,90.42
2018-12-24T18:12:51.768Z,90.77
2018-12-24T18:15:20.598Z,91.39
2018-12-24T18:17:49.653Z,90.98
2018-12-24T18:20:18.446Z,90.61
2018-12-24T18:22:47.242Z,90.82
2018-12-24T18:25:16.076Z,91.01
2018-12-24T18:27:44.843Z,91.20
2018-12-24T18:30:13.680Z,90.80
2018-12-24T18:32:42.824Z,90.81
2018-12-24T18:35:11.656Z,90.81
2018-12-24T18:37:40.614Z,90.59
2018-12-24T18:40:09.503Z,90.96
2018-12-24T18:42:38.281Z,90.88
2018-12-24T18:45:07.226Z,90.95
2018-12-24T18:47:36.304Z,90.61
2018-12-24T18:50:06.333Z,91.08
2018-12-24T18:52:35.231Z,90.94
2018-12-24T18:55:04.217Z,91.08
2018-12-24T18:57:33.004Z,91.10
2018-12-24T19:00:01.772Z,90.72
2018-12-24T19:02:30.627Z,90.99
2018-12-24T19:05:00.242Z,91.60
2018-12-24T19:07:29.086Z,91.11
2018-12-24T19:09:57.844Z,91.21
2018-12-24T19:12:26.743Z,90.85
2018-12-24T19:14:55.802Z,91.09
2018-12-24T19:17:24.569Z,90.87
2018-12-24T19:19:53.353Z,91.26
2018-12-24T19:22:22.100Z,91.88
2018-12-24T19:24:50.906Z,91.44
2018-12-24T19:27:19.883Z,91.14
2018-12-24T19:29:48.791Z,91.15
2018-12-24T19:32:17.577Z,91.02
2018-12-24T19:34:46.450Z,90.91
2018-12-24T19:37:15.803Z,90.70
2018-12-24T19:39:44.575Z,90.45
2018-12-24T19:42:13.538Z,91.13
2018-12-24T19:44:43.044Z,91.34
2018-12-24T19:47:12.224Z,91.19
2018-12-24T19:49:41.005Z,90.83
2018-12-24T19:52:12.267Z,90.79
2018-12-24T19:54:41.314Z,90.99
2018-12-24T19:57:10.102Z,90.89
2018-12-24T19:59:39.006Z,90.64
2018-12-24T20:02:07.830Z,90.32
2018-12-24T20:04:36.659Z,90.11
2018-12-24T20:07:05.440Z,90.64
2018-12-24T20:09:34.844Z,90.25
2018-12-24T20:12:05.067Z,90.78
2018-12-24T20:14:34.010Z,91.15
2018-12-24T20:17:02.781Z,90.91
2018-12-24T20:19:32.026Z,90.87
2018-12-24T20:22:00.944Z,90.87
2018-12-24T20:24:33.889Z,91.30
2018-12-24T20:27:02.926Z,90.87
2018-12-24T20:29:59.156Z,90.76
2018-12-24T20:32:28.372Z,91.09
2018-12-24T20:34:57.187Z,90.96
2018-12-24T20:37:26.104Z,91.11
2018-12-24T20:39:54.913Z,91.47
2018-12-24T20:42:23.718Z,91.42
2018-12-24T20:44:52.580Z,91.39
2018-12-24T20:47:21.402Z,91.64
2018-12-24T20:49:50.181Z,91.37
2018-12-24T20:52:18.998Z,91.83
2018-12-24T20:54:47.866Z,91.70
2018-12-24T20:57:16.625Z,91.66
2018-12-24T20:59:45.720Z,91.80
2018-12-24T21:02:14.487Z,91.58
2018-12-24T21:04:43.422Z,91.39
2018-12-24T21:07:12.529Z,91.54
2018-12-24T21:09:41.304Z,91.76
2018-12-24T21:12:10.116Z,92.03
2018-12-24T21:14:38.981Z,91.75
2018-12-24T21:17:07.806Z,91.57
2018-12-24T21:19:36.863Z,91.77
2018-12-24T21:22:05.991Z,91.76
2018-12-24T21:24:35.360Z,92.51
2018-12-24T21:27:06.746Z,92.24
2018-12-24T21:29:35.594Z,92.27
2018-12-24T21:32:04.892Z,92.42
2018-12-24T21:34:33.684Z,92.30
2018-12-24T21:37:02.531Z,92.22
2018-12-24T21:39:31.815Z,92.16
2018-12-24T21:42:00.601Z,92.40
2018-12-24T21:44:29.384Z,92.01
2018-12-24T21:46:58.160Z,92.12
2018-12-24T21:49:27.134Z,92.29
2018-12-24T21:51:56.044Z,92.30
2018-12-24T21:54:24.850Z,92.25
2018-12-24T21:56:53.777Z,92.42
2018-12-24T21:59:22.565Z,92.18
2018-12-24T22:01:51.707Z,92.01
2018-12-24T22:04:20.491Z,92.43
2018-12-24T22:06:49.266Z,92.06
2018-12-24T22:09:21.683Z,92.37
2018-12-24T22:11:51.976Z,92.30
2018-12-24T22:14:20.770Z,92.25
2018-12-24T22:16:49.573Z,92.06
2018-12-24T22:19:19.144Z,92.31
2018-12-24T22:21:48.057Z,92.28
2018-12-24T22:24:24.671Z,92.38
2018-12-24T22:26:54.599Z,92.26
2018-12-24T22:29:23.459Z,92.17
2018-12-24T22:31:53.140Z,92.22
2018-12-24T22:34:22.032Z,92.09
2018-12-24T22:36:50.949Z,92.10
2018-12-24T22:39:19.957Z,92.01
2018-12-24T22:41:48.732Z,91.83
2018-12-24T22:44:18.022Z,91.86
2018-12-24T22:46:49.545Z,92.12
2018-12-24T22:49:18.413Z,92.04
2018-12-24T22:51:47.621Z,91.91
2018-12-24T22:54:16.752Z,92.00
2018-12-24T22:56:46.777Z,91.96
2018-12-24T22:59:15.621Z,92.17
2018-12-24T23:01:44.481Z,92.20
2018-12-24T23:04:13.401Z,92.03
2018-12-24T23:06:42.242Z,92.28
2018-12-24T23:09:12.723Z,92.25
2018-12-24T23:11:41.488Z,92.25
2018-12-24T23:14:10.494Z,92.12
2018-12-24T23:16:39.383Z,92.50
2018-12-24T23:19:09.597Z,92.43
2018-12-24T23:21:38.639Z,92.21
2018-12-24T23:24:09.527Z,92.29
2018-12-24T23:26:38.423Z,92.46
2018-12-24T23:29:07.442Z,92.27
2018-12-24T23:31:36.246Z,92.33
2018-12-24T23:34:06.000Z,92.45
2018-12-24T23:36:34.955Z,92.05
2018-12-24T23:39:05.564Z,92.03
2018-12-24T23:41:34.746Z,91.98
2018-12-24T23:44:05.517Z,91.96
2018-12-24T23:46:35.028Z,91.79
2018-12-24T23:49:04.280Z,92.17
2018-12-24T23:51:33.107Z,92.01
2018-12-24T23:54:02.484Z,92.10
2018-12-24T23:56:31.640Z,92.06
2018-12-24T23:59:00.645Z,91.92
